sensor_id;sensor_type;location;lat;lon;timestamp;P1;durP1;ratioP1;P2;durP2;ratioP2
39792;SDS011;26080;42.264;24.536;2022-11-15T00:00:48;5.75;;;3.10;;
39792;SDS011;26080;42.264;24.536;2022-11-15T00:03:17;9.73;;;3.45;;
39792;SDS011;26080;42.264;24.536;2022-11-15T00:05:44;5.95;;;2.92;;
39792;SDS011;26080;42.264;24.536;2022-11-15T00:08:10;4.55;;;2.88;;
39792;SDS011;26080;42.264;24.536;2022-11-15T00:10:36;5.00;;;3.80;;
39792;SDS011;26080;42.264;24.536;2022-11-15T00:13:06;12.30;;;3.40;;
39792;SDS011;26080;42.264;24.536;2022-11-15T00:15:36;4.47;;;2.22;;
39792;SDS011;26080;42.264;24.536;2022-11-15T00:18:03;4.88;;;3.30;;
39792;SDS011;26080;42.264;24.536;2022-11-15T00:20:29;3.92;;;2.97;;
39792;SDS011;26080;42.264;24.536;2022-11-15T00:22:55;7.88;;;3.80;;
39792;SDS011;26080;42.264;24.536;2022-11-15T00:25:20;9.07;;;4.05;;
39792;SDS011;26080;42.264;24.536;2022-11-15T00:27:46;3.20;;;2.63;;
39792;SDS011;26080;42.264;24.536;2022-11-15T00:30:11;4.10;;;3.70;;
39792;SDS011;26080;42.264;24.536;2022-11-15T00:32:37;3.60;;;2.53;;
39792;SDS011;26080;42.264;24.536;2022-11-15T00:35:03;18.73;;;4.22;;
39792;SDS011;26080;42.264;24.536;2022-11-15T00:37:28;4.82;;;2.97;;
39792;SDS011;26080;42.264;24.536;2022-11-15T00:39:54;3.28;;;1.92;;
39792;SDS011;26080;42.264;24.536;2022-11-15T00:42:19;5.88;;;2.58;;
39792;SDS011;26080;42.264;24.536;2022-11-15T00:44:45;3.20;;;2.58;;
39792;SDS011;26080;42.264;24.536;2022-11-15T00:47:10;7.13;;;3.30;;
39792;SDS011;26080;42.264;24.536;2022-11-15T00:49:35;10.38;;;4.20;;
39792;SDS011;26080;42.264;24.536;2022-11-15T00:52:01;2.78;;;2.42;;
39792;SDS011;26080;42.264;24.536;2022-11-15T00:54:26;6.03;;;2.92;;
39792;SDS011;26080;42.264;24.536;2022-11-15T00:56:52;3.75;;;3.22;;
39792;SDS011;26080;42.264;24.536;2022-11-15T00:59:17;8.75;;;3.33;;
39792;SDS011;26080;42.264;24.536;2022-11-15T01:01:43;4.15;;;2.42;;
39792;SDS011;26080;42.264;24.536;2022-11-15T01:04:08;4.32;;;2.53;;
39792;SDS011;26080;42.264;24.536;2022-11-15T01:06:33;3.67;;;2.60;;
39792;SDS011;26080;42.264;24.536;2022-11-15T01:08:59;5.47;;;4.03;;
39792;SDS011;26080;42.264;24.536;2022-11-15T01:11:24;6.32;;;3.13;;
39792;SDS011;26080;42.264;24.536;2022-11-15T01:13:50;4.93;;;4.53;;
39792;SDS011;26080;42.264;24.536;2022-11-15T01:16:16;9.65;;;6.15;;
39792;SDS011;26080;42.264;24.536;2022-11-15T01:18:43;14.68;;;12.95;;
39792;SDS011;26080;42.264;24.536;2022-11-15T01:21:10;11.00;;;8.35;;
39792;SDS011;26080;42.264;24.536;2022-11-15T01:23:38;6.00;;;4.10;;
39792;SDS011;26080;42.264;24.536;2022-11-15T01:26:04;5.53;;;3.38;;
39792;SDS011;26080;42.264;24.536;2022-11-15T01:28:32;5.13;;;4.50;;
39792;SDS011;26080;42.264;24.536;2022-11-15T01:30:59;10.80;;;5.25;;
39792;SDS011;26080;42.264;24.536;2022-11-15T01:33:26;3.42;;;2.88;;
39792;SDS011;26080;42.264;24.536;2022-11-15T01:35:52;6.05;;;3.38;;
39792;SDS011;26080;42.264;24.536;2022-11-15T01:38:17;5.38;;;2.75;;
39792;SDS011;26080;42.264;24.536;2022-11-15T01:40:42;6.63;;;3.55;;
39792;SDS011;26080;42.264;24.536;2022-11-15T01:43:21;6.43;;;2.70;;
39792;SDS011;26080;42.264;24.536;2022-11-15T01:45:57;4.38;;;3.10;;
39792;SDS011;26080;42.264;24.536;2022-11-15T01:48:27;3.00;;;2.80;;
39792;SDS011;26080;42.264;24.536;2022-11-15T01:50:57;3.70;;;2.97;;
39792;SDS011;26080;42.264;24.536;2022-11-15T01:53:24;9.10;;;4.20;;
39792;SDS011;26080;42.264;24.536;2022-11-15T01:55:51;4.53;;;2.65;;
39792;SDS011;26080;42.264;24.536;2022-11-15T01:58:17;6.53;;;4.50;;
39792;SDS011;26080;42.264;24.536;2022-11-15T02:00:43;5.18;;;3.10;;
39792;SDS011;26080;42.264;24.536;2022-11-15T02:03:09;4.13;;;2.42;;
39792;SDS011;26080;42.264;24.536;2022-11-15T02:05:34;5.10;;;3.08;;
39792;SDS011;26080;42.264;24.536;2022-11-15T02:08:01;4.03;;;2.05;;
39792;SDS011;26080;42.264;24.536;2022-11-15T02:10:27;13.40;;;3.95;;
39792;SDS011;26080;42.264;24.536;2022-11-15T02:12:53;14.38;;;2.50;;
39792;SDS011;26080;42.264;24.536;2022-11-15T02:15:21;2.65;;;1.60;;
39792;SDS011;26080;42.264;24.536;2022-11-15T02:32:05;9.05;;;4.75;;
39792;SDS011;26080;42.264;24.536;2022-11-15T02:42:43;4.07;;;3.15;;
39792;SDS011;26080;42.264;24.536;2022-11-15T02:45:34;20.88;;;2.80;;
39792;SDS011;26080;42.264;24.536;2022-11-15T02:48:04;4.15;;;3.50;;
39792;SDS011;26080;42.264;24.536;2022-11-15T02:50:32;6.80;;;4.32;;
39792;SDS011;26080;42.264;24.536;2022-11-15T02:52:58;8.18;;;4.03;;
39792;SDS011;26080;42.264;24.536;2022-11-15T02:58:02;6.03;;;3.45;;
39792;SDS011;26080;42.264;24.536;2022-11-15T03:00:55;8.70;;;3.30;;
39792;SDS011;26080;42.264;24.536;2022-11-15T03:03:56;6.50;;;2.10;;
39792;SDS011;26080;42.264;24.536;2022-11-15T03:09:10;3.53;;;2.53;;
39792;SDS011;26080;42.264;24.536;2022-11-15T03:11:47;5.47;;;4.43;;
39792;SDS011;26080;42.264;24.536;2022-11-15T03:14:42;6.57;;;3.67;;
39792;SDS011;26080;42.264;24.536;2022-11-15T03:19:53;5.30;;;3.42;;
39792;SDS011;26080;42.264;24.536;2022-11-15T03:22:23;7.30;;;3.75;;
39792;SDS011;26080;42.264;24.536;2022-11-15T03:24:52;11.48;;;5.72;;
39792;SDS011;26080;42.264;24.536;2022-11-15T03:27:21;9.43;;;4.53;;
39792;SDS011;26080;42.264;24.536;2022-11-15T03:29:51;4.20;;;2.65;;
39792;SDS011;26080;42.264;24.536;2022-11-15T03:32:26;6.22;;;3.85;;
39792;SDS011;26080;42.264;24.536;2022-11-15T03:35:02;2.30;;;2.03;;
39792;SDS011;26080;42.264;24.536;2022-11-15T03:37:32;6.78;;;3.45;;
39792;SDS011;26080;42.264;24.536;2022-11-15T03:40:02;1.95;;;1.80;;
39792;SDS011;26080;42.264;24.536;2022-11-15T03:45:19;5.57;;;2.88;;
39792;SDS011;26080;42.264;24.536;2022-11-15T03:48:10;3.63;;;3.33;;
39792;SDS011;26080;42.264;24.536;2022-11-15T03:50:37;2.90;;;2.53;;
39792;SDS011;26080;42.264;24.536;2022-11-15T03:53:03;3.67;;;3.35;;
39792;SDS011;26080;42.264;24.536;2022-11-15T03:55:29;2.83;;;2.22;;
39792;SDS011;26080;42.264;24.536;2022-11-15T03:57:59;3.80;;;3.10;;
39792;SDS011;26080;42.264;24.536;2022-11-15T04:00:26;8.00;;;5.13;;
39792;SDS011;26080;42.264;24.536;2022-11-15T04:02:53;4.32;;;1.83;;
39792;SDS011;26080;42.264;24.536;2022-11-15T04:05:18;3.58;;;3.17;;
39792;SDS011;26080;42.264;24.536;2022-11-15T04:07:44;5.75;;;3.30;;
39792;SDS011;26080;42.264;24.536;2022-11-15T04:10:10;4.07;;;3.67;;
39792;SDS011;26080;42.264;24.536;2022-11-15T04:12:37;3.70;;;2.70;;
39792;SDS011;26080;42.264;24.536;2022-11-15T04:17:33;6.95;;;3.47;;
39792;SDS011;26080;42.264;24.536;2022-11-15T04:20:04;4.60;;;3.20;;
39792;SDS011;26080;42.264;24.536;2022-11-15T04:22:57;3.75;;;3.13;;
39792;SDS011;26080;42.264;24.536;2022-11-15T04:25:43;5.80;;;4.55;;
39792;SDS011;26080;42.264;24.536;2022-11-15T04:28:09;9.07;;;4.97;;
39792;SDS011;26080;42.264;24.536;2022-11-15T04:30:35;5.90;;;5.15;;
39792;SDS011;26080;42.264;24.536;2022-11-15T04:33:01;5.50;;;3.92;;
39792;SDS011;26080;42.264;24.536;2022-11-15T04:35:26;6.28;;;4.25;;
39792;SDS011;26080;42.264;24.536;2022-11-15T04:37:53;5.03;;;3.92;;
39792;SDS011;26080;42.264;24.536;2022-11-15T04:40:19;6.10;;;4.57;;
39792;SDS011;26080;42.264;24.536;2022-11-15T04:42:44;13.05;;;8.50;;
39792;SDS011;26080;42.264;24.536;2022-11-15T04:45:10;10.80;;;4.70;;
39792;SDS011;26080;42.264;24.536;2022-11-15T04:47:36;10.30;;;6.25;;
39792;SDS011;26080;42.264;24.536;2022-11-15T04:50:02;8.52;;;3.67;;
39792;SDS011;26080;42.264;24.536;2022-11-15T04:52:28;6.85;;;4.78;;
39792;SDS011;26080;42.264;24.536;2022-11-15T04:54:53;4.65;;;3.72;;
39792;SDS011;26080;42.264;24.536;2022-11-15T04:57:18;4.80;;;3.45;;
39792;SDS011;26080;42.264;24.536;2022-11-15T04:59:44;4.30;;;2.30;;
39792;SDS011;26080;42.264;24.536;2022-11-15T05:02:10;7.57;;;3.50;;
39792;SDS011;26080;42.264;24.536;2022-11-15T05:04:35;6.70;;;3.25;;
39792;SDS011;26080;42.264;24.536;2022-11-15T05:07:00;4.07;;;3.58;;
39792;SDS011;26080;42.264;24.536;2022-11-15T05:09:27;3.83;;;3.17;;
39792;SDS011;26080;42.264;24.536;2022-11-15T05:11:52;4.97;;;4.18;;
39792;SDS011;26080;42.264;24.536;2022-11-15T05:14:17;4.60;;;4.20;;
39792;SDS011;26080;42.264;24.536;2022-11-15T05:16:43;6.40;;;4.00;;
39792;SDS011;26080;42.264;24.536;2022-11-15T05:19:08;6.50;;;3.60;;
39792;SDS011;26080;42.264;24.536;2022-11-15T05:21:34;7.88;;;3.83;;
39792;SDS011;26080;42.264;24.536;2022-11-15T05:24:00;5.13;;;4.47;;
39792;SDS011;26080;42.264;24.536;2022-11-15T05:26:26;9.77;;;3.67;;
39792;SDS011;26080;42.264;24.536;2022-11-15T05:28:53;4.72;;;4.00;;
39792;SDS011;26080;42.264;24.536;2022-11-15T05:31:22;9.52;;;4.70;;
39792;SDS011;26080;42.264;24.536;2022-11-15T05:33:49;4.93;;;4.15;;
39792;SDS011;26080;42.264;24.536;2022-11-15T05:38:48;6.55;;;5.20;;
39792;SDS011;26080;42.264;24.536;2022-11-15T05:41:14;6.72;;;5.53;;
39792;SDS011;26080;42.264;24.536;2022-11-15T05:43:42;6.55;;;5.15;;
39792;SDS011;26080;42.264;24.536;2022-11-15T05:46:08;7.43;;;3.17;;
39792;SDS011;26080;42.264;24.536;2022-11-15T05:48:34;6.70;;;3.63;;
39792;SDS011;26080;42.264;24.536;2022-11-15T05:51:02;4.45;;;4.05;;
39792;SDS011;26080;42.264;24.536;2022-11-15T05:53:30;4.22;;;3.75;;
39792;SDS011;26080;42.264;24.536;2022-11-15T05:55:56;5.93;;;2.40;;
39792;SDS011;26080;42.264;24.536;2022-11-15T05:58:21;4.40;;;2.40;;
39792;SDS011;26080;42.264;24.536;2022-11-15T06:00:47;3.40;;;3.10;;
39792;SDS011;26080;42.264;24.536;2022-11-15T06:03:13;5.70;;;4.28;;
39792;SDS011;26080;42.264;24.536;2022-11-15T06:05:39;3.78;;;2.80;;
39792;SDS011;26080;42.264;24.536;2022-11-15T06:08:05;4.72;;;3.92;;
39792;SDS011;26080;42.264;24.536;2022-11-15T06:10:30;9.57;;;5.90;;
39792;SDS011;26080;42.264;24.536;2022-11-15T06:13:00;11.73;;;4.10;;
39792;SDS011;26080;42.264;24.536;2022-11-15T06:15:29;13.07;;;4.60;;
39792;SDS011;26080;42.264;24.536;2022-11-15T06:17:58;9.98;;;5.88;;
39792;SDS011;26080;42.264;24.536;2022-11-15T06:20:24;5.82;;;4.28;;
39792;SDS011;26080;42.264;24.536;2022-11-15T06:22:50;5.25;;;4.75;;
39792;SDS011;26080;42.264;24.536;2022-11-15T06:25:16;6.95;;;4.70;;
39792;SDS011;26080;42.264;24.536;2022-11-15T06:27:41;11.88;;;3.25;;
39792;SDS011;26080;42.264;24.536;2022-11-15T06:30:07;12.93;;;5.68;;
39792;SDS011;26080;42.264;24.536;2022-11-15T06:32:32;5.68;;;3.90;;
39792;SDS011;26080;42.264;24.536;2022-11-15T06:34:58;8.63;;;4.82;;
39792;SDS011;26080;42.264;24.536;2022-11-15T06:37:23;3.67;;;3.17;;
39792;SDS011;26080;42.264;24.536;2022-11-15T06:39:49;5.43;;;4.07;;
39792;SDS011;26080;42.264;24.536;2022-11-15T06:42:14;3.10;;;2.80;;
39792;SDS011;26080;42.264;24.536;2022-11-15T06:44:39;8.70;;;5.07;;
39792;SDS011;26080;42.264;24.536;2022-11-15T06:47:05;8.90;;;4.90;;
39792;SDS011;26080;42.264;24.536;2022-11-15T06:49:30;11.25;;;4.20;;
39792;SDS011;26080;42.264;24.536;2022-11-15T06:51:56;4.78;;;3.67;;
39792;SDS011;26080;42.264;24.536;2022-11-15T06:54:21;8.13;;;3.42;;
39792;SDS011;26080;42.264;24.536;2022-11-15T06:56:47;8.40;;;5.18;;
39792;SDS011;26080;42.264;24.536;2022-11-15T06:59:12;11.80;;;5.32;;
39792;SDS011;26080;42.264;24.536;2022-11-15T07:01:38;6.70;;;6.00;;
39792;SDS011;26080;42.264;24.536;2022-11-15T07:04:03;7.47;;;6.32;;
39792;SDS011;26080;42.264;24.536;2022-11-15T07:06:29;7.93;;;7.18;;
39792;SDS011;26080;42.264;24.536;2022-11-15T07:08:54;6.68;;;5.60;;
39792;SDS011;26080;42.264;24.536;2022-11-15T07:11:19;5.45;;;4.57;;
39792;SDS011;26080;42.264;24.536;2022-11-15T07:13:45;4.93;;;4.40;;
39792;SDS011;26080;42.264;24.536;2022-11-15T07:16:10;12.32;;;7.10;;
39792;SDS011;26080;42.264;24.536;2022-11-15T07:18:37;8.35;;;7.38;;
39792;SDS011;26080;42.264;24.536;2022-11-15T07:21:04;7.88;;;5.28;;
39792;SDS011;26080;42.264;24.536;2022-11-15T07:23:32;3.72;;;3.42;;
39792;SDS011;26080;42.264;24.536;2022-11-15T07:26:00;10.65;;;5.72;;
39792;SDS011;26080;42.264;24.536;2022-11-15T07:28:26;6.68;;;4.15;;
39792;SDS011;26080;42.264;24.536;2022-11-15T07:30:52;14.13;;;4.80;;
39792;SDS011;26080;42.264;24.536;2022-11-15T07:33:17;4.38;;;3.97;;
39792;SDS011;26080;42.264;24.536;2022-11-15T07:35:43;11.05;;;5.97;;
39792;SDS011;26080;42.264;24.536;2022-11-15T07:38:11;8.38;;;6.60;;
39792;SDS011;26080;42.264;24.536;2022-11-15T07:40:36;13.45;;;6.28;;
39792;SDS011;26080;42.264;24.536;2022-11-15T07:43:03;9.27;;;6.57;;
39792;SDS011;26080;42.264;24.536;2022-11-15T07:45:30;14.57;;;6.88;;
39792;SDS011;26080;42.264;24.536;2022-11-15T07:47:58;20.08;;;6.82;;
39792;SDS011;26080;42.264;24.536;2022-11-15T07:50:24;8.38;;;6.00;;
39792;SDS011;26080;42.264;24.536;2022-11-15T07:52:53;38.75;;;6.57;;
39792;SDS011;26080;42.264;24.536;2022-11-15T07:55:23;10.32;;;6.35;;
39792;SDS011;26080;42.264;24.536;2022-11-15T07:57:49;12.93;;;6.75;;
39792;SDS011;26080;42.264;24.536;2022-11-15T08:00:15;8.52;;;5.72;;
39792;SDS011;26080;42.264;24.536;2022-11-15T08:02:40;12.98;;;7.78;;
39792;SDS011;26080;42.264;24.536;2022-11-15T08:05:06;15.02;;;10.63;;
39792;SDS011;26080;42.264;24.536;2022-11-15T08:07:32;14.15;;;9.05;;
39792;SDS011;26080;42.264;24.536;2022-11-15T08:09:58;10.95;;;5.13;;
39792;SDS011;26080;42.264;24.536;2022-11-15T08:12:23;10.77;;;8.00;;
39792;SDS011;26080;42.264;24.536;2022-11-15T08:14:49;24.95;;;12.73;;
39792;SDS011;26080;42.264;24.536;2022-11-15T08:17:15;60.65;;;27.10;;
39792;SDS011;26080;42.264;24.536;2022-11-15T08:19:40;22.80;;;11.85;;
39792;SDS011;26080;42.264;24.536;2022-11-15T08:22:06;16.00;;;11.27;;
39792;SDS011;26080;42.264;24.536;2022-11-15T08:24:32;27.30;;;14.80;;
39792;SDS011;26080;42.264;24.536;2022-11-15T08:26:57;19.83;;;10.27;;
39792;SDS011;26080;42.264;24.536;2022-11-15T08:29:23;28.80;;;16.27;;
39792;SDS011;26080;42.264;24.536;2022-11-15T08:31:48;104.82;;;54.13;;
39792;SDS011;26080;42.264;24.536;2022-11-15T08:34:13;44.97;;;23.38;;
39792;SDS011;26080;42.264;24.536;2022-11-15T08:36:39;16.50;;;10.63;;
39792;SDS011;26080;42.264;24.536;2022-11-15T08:39:04;12.45;;;9.55;;
39792;SDS011;26080;42.264;24.536;2022-11-15T08:41:31;12.93;;;8.73;;
39792;SDS011;26080;42.264;24.536;2022-11-15T08:44:00;10.25;;;6.70;;
39792;SDS011;26080;42.264;24.536;2022-11-15T08:46:26;14.88;;;6.90;;
39792;SDS011;26080;42.264;24.536;2022-11-15T08:48:52;10.68;;;5.95;;
39792;SDS011;26080;42.264;24.536;2022-11-15T08:51:17;7.95;;;5.60;;
39792;SDS011;26080;42.264;24.536;2022-11-15T08:53:44;16.15;;;6.85;;
39792;SDS011;26080;42.264;24.536;2022-11-15T08:56:10;11.02;;;6.00;;
39792;SDS011;26080;42.264;24.536;2022-11-15T08:58:37;11.27;;;7.10;;
39792;SDS011;26080;42.264;24.536;2022-11-15T09:01:03;12.32;;;6.80;;
39792;SDS011;26080;42.264;24.536;2022-11-15T09:03:29;7.65;;;5.85;;
39792;SDS011;26080;42.264;24.536;2022-11-15T09:05:55;7.30;;;5.32;;
39792;SDS011;26080;42.264;24.536;2022-11-15T09:08:22;9.85;;;7.38;;
39792;SDS011;26080;42.264;24.536;2022-11-15T09:10:48;13.68;;;6.93;;
39792;SDS011;26080;42.264;24.536;2022-11-15T09:13:13;15.15;;;7.07;;
39792;SDS011;26080;42.264;24.536;2022-11-15T09:15:39;8.05;;;6.35;;
39792;SDS011;26080;42.264;24.536;2022-11-15T09:18:04;9.25;;;6.20;;
39792;SDS011;26080;42.264;24.536;2022-11-15T09:20:30;11.95;;;6.45;;
39792;SDS011;26080;42.264;24.536;2022-11-15T09:22:59;6.13;;;5.22;;
39792;SDS011;26080;42.264;24.536;2022-11-15T09:25:26;6.20;;;5.47;;
39792;SDS011;26080;42.264;24.536;2022-11-15T09:27:51;7.50;;;5.22;;
39792;SDS011;26080;42.264;24.536;2022-11-15T09:30:17;14.02;;;8.10;;
39792;SDS011;26080;42.264;24.536;2022-11-15T09:32:42;13.07;;;9.30;;
39792;SDS011;26080;42.264;24.536;2022-11-15T09:35:08;14.25;;;7.35;;
39792;SDS011;26080;42.264;24.536;2022-11-15T09:37:33;13.10;;;5.90;;
39792;SDS011;26080;42.264;24.536;2022-11-15T09:39:58;10.13;;;5.28;;
39792;SDS011;26080;42.264;24.536;2022-11-15T09:48:03;8.85;;;4.80;;
39792;SDS011;26080;42.264;24.536;2022-11-15T09:50:37;9.18;;;5.65;;
39792;SDS011;26080;42.264;24.536;2022-11-15T09:53:12;9.07;;;7.00;;
39792;SDS011;26080;42.264;24.536;2022-11-15T09:55:54;17.90;;;7.50;;
39792;SDS011;26080;42.264;24.536;2022-11-15T09:58:28;8.75;;;5.68;;
39792;SDS011;26080;42.264;24.536;2022-11-15T10:01:06;5.93;;;4.88;;
39792;SDS011;26080;42.264;24.536;2022-11-15T10:03:37;8.88;;;6.32;;
39792;SDS011;26080;42.264;24.536;2022-11-15T10:06:12;16.77;;;7.63;;
39792;SDS011;26080;42.264;24.536;2022-11-15T10:11:24;10.40;;;5.15;;
39792;SDS011;26080;42.264;24.536;2022-11-15T10:13:53;12.60;;;6.45;;
39792;SDS011;26080;42.264;24.536;2022-11-15T10:25:20;14.75;;;4.82;;
39792;SDS011;26080;42.264;24.536;2022-11-15T10:27:51;9.45;;;4.60;;
39792;SDS011;26080;42.264;24.536;2022-11-15T10:30:21;7.43;;;5.78;;
39792;SDS011;26080;42.264;24.536;2022-11-15T10:32:47;7.32;;;6.63;;
39792;SDS011;26080;42.264;24.536;2022-11-15T10:35:18;13.40;;;5.57;;
39792;SDS011;26080;42.264;24.536;2022-11-15T10:38:04;3.97;;;3.00;;
39792;SDS011;26080;42.264;24.536;2022-11-15T10:40:31;8.60;;;5.55;;
39792;SDS011;26080;42.264;24.536;2022-11-15T10:43:18;7.70;;;4.20;;
39792;SDS011;26080;42.264;24.536;2022-11-15T10:45:43;11.43;;;6.63;;
39792;SDS011;26080;42.264;24.536;2022-11-15T10:50:39;6.53;;;3.22;;
39792;SDS011;26080;42.264;24.536;2022-11-15T10:53:10;12.40;;;5.65;;
39792;SDS011;26080;42.264;24.536;2022-11-15T10:55:52;13.98;;;5.25;;
39792;SDS011;26080;42.264;24.536;2022-11-15T10:58:38;11.50;;;5.55;;
39792;SDS011;26080;42.264;24.536;2022-11-15T11:01:14;8.85;;;4.97;;
39792;SDS011;26080;42.264;24.536;2022-11-15T11:03:41;7.05;;;3.97;;
39792;SDS011;26080;42.264;24.536;2022-11-15T11:06:09;5.38;;;4.28;;
39792;SDS011;26080;42.264;24.536;2022-11-15T11:08:40;8.40;;;5.75;;
39792;SDS011;26080;42.264;24.536;2022-11-15T11:11:17;5.30;;;4.72;;
39792;SDS011;26080;42.264;24.536;2022-11-15T11:13:43;3.90;;;3.53;;
39792;SDS011;26080;42.264;24.536;2022-11-15T11:21:43;11.07;;;5.78;;
39792;SDS011;26080;42.264;24.536;2022-11-15T11:24:34;4.35;;;3.38;;
39792;SDS011;26080;42.264;24.536;2022-11-15T11:27:18;8.55;;;5.57;;
39792;SDS011;26080;42.264;24.536;2022-11-15T11:32:46;6.82;;;5.43;;
39792;SDS011;26080;42.264;24.536;2022-11-15T11:35:23;7.68;;;4.95;;
39792;SDS011;26080;42.264;24.536;2022-11-15T11:48:59;9.18;;;5.30;;
39792;SDS011;26080;42.264;24.536;2022-11-15T11:51:59;28.10;;;6.50;;
39792;SDS011;26080;42.264;24.536;2022-11-15T11:58:03;8.93;;;5.95;;
39792;SDS011;26080;42.264;24.536;2022-11-15T12:03:11;6.22;;;4.32;;
39792;SDS011;26080;42.264;24.536;2022-11-15T12:05:44;7.40;;;3.80;;
39792;SDS011;26080;42.264;24.536;2022-11-15T12:08:25;6.38;;;4.20;;
39792;SDS011;26080;42.264;24.536;2022-11-15T12:11:03;6.13;;;4.50;;
39792;SDS011;26080;42.264;24.536;2022-11-15T12:13:49;4.88;;;3.88;;
39792;SDS011;26080;42.264;24.536;2022-11-15T12:18:53;4.95;;;3.40;;
39792;SDS011;26080;42.264;24.536;2022-11-15T12:21:22;6.85;;;3.92;;
39792;SDS011;26080;42.264;24.536;2022-11-15T12:23:51;7.00;;;3.67;;
39792;SDS011;26080;42.264;24.536;2022-11-15T12:26:25;5.53;;;4.18;;
39792;SDS011;26080;42.264;24.536;2022-11-15T12:28:58;9.40;;;4.75;;
39792;SDS011;26080;42.264;24.536;2022-11-15T12:31:45;7.93;;;3.65;;
39792;SDS011;26080;42.264;24.536;2022-11-15T12:36:47;8.85;;;4.43;;
39792;SDS011;26080;42.264;24.536;2022-11-15T12:39:16;6.72;;;4.13;;
39792;SDS011;26080;42.264;24.536;2022-11-15T12:49:47;6.25;;;4.00;;
39792;SDS011;26080;42.264;24.536;2022-11-15T12:52:14;8.50;;;5.10;;
39792;SDS011;26080;42.264;24.536;2022-11-15T12:59:50;4.72;;;3.45;;
39792;SDS011;26080;42.264;24.536;2022-11-15T13:02:35;4.30;;;3.20;;
39792;SDS011;26080;42.264;24.536;2022-11-15T13:15:51;5.78;;;3.83;;
39792;SDS011;26080;42.264;24.536;2022-11-15T13:17:58;4.38;;;3.22;;
39792;SDS011;26080;42.264;24.536;2022-11-15T13:20:28;8.27;;;3.85;;
39792;SDS011;26080;42.264;24.536;2022-11-15T13:23:16;3.88;;;3.20;;
39792;SDS011;26080;42.264;24.536;2022-11-15T13:33:51;5.82;;;4.18;;
39792;SDS011;26080;42.264;24.536;2022-11-15T13:36:30;7.35;;;5.35;;
39792;SDS011;26080;42.264;24.536;2022-11-15T13:39:04;7.57;;;3.70;;
39792;SDS011;26080;42.264;24.536;2022-11-15T13:41:50;4.80;;;3.78;;
39792;SDS011;26080;42.264;24.536;2022-11-15T13:44:19;8.57;;;4.57;;
39792;SDS011;26080;42.264;24.536;2022-11-15T13:46:59;7.70;;;4.67;;
39792;SDS011;26080;42.264;24.536;2022-11-15T13:49:37;4.45;;;3.03;;
39792;SDS011;26080;42.264;24.536;2022-11-15T13:52:04;6.07;;;3.55;;
39792;SDS011;26080;42.264;24.536;2022-11-15T13:57:21;5.95;;;4.35;;
39792;SDS011;26080;42.264;24.536;2022-11-15T13:59:54;7.97;;;4.35;;
39792;SDS011;26080;42.264;24.536;2022-11-15T14:02:26;5.55;;;4.15;;
39792;SDS011;26080;42.264;24.536;2022-11-15T14:04:55;5.78;;;4.00;;
39792;SDS011;26080;42.264;24.536;2022-11-15T14:07:26;7.95;;;5.38;;
39792;SDS011;26080;42.264;24.536;2022-11-15T14:09:53;8.32;;;4.10;;
39792;SDS011;26080;42.264;24.536;2022-11-15T14:12:23;8.57;;;2.80;;
39792;SDS011;26080;42.264;24.536;2022-11-15T14:15:00;8.57;;;4.68;;
39792;SDS011;26080;42.264;24.536;2022-11-15T14:17:44;10.57;;;5.90;;
39792;SDS011;26080;42.264;24.536;2022-11-15T14:23:18;10.88;;;6.28;;
39792;SDS011;26080;42.264;24.536;2022-11-15T14:25:53;8.25;;;5.63;;
39792;SDS011;26080;42.264;24.536;2022-11-15T14:30:48;8.80;;;5.72;;
39792;SDS011;26080;42.264;24.536;2022-11-15T14:33:19;9.90;;;6.30;;
39792;SDS011;26080;42.264;24.536;2022-11-15T14:35:54;15.57;;;6.43;;
39792;SDS011;26080;42.264;24.536;2022-11-15T14:38:22;11.00;;;7.35;;
39792;SDS011;26080;42.264;24.536;2022-11-15T14:40:49;9.02;;;6.05;;
39792;SDS011;26080;42.264;24.536;2022-11-15T14:43:15;7.53;;;6.35;;
39792;SDS011;26080;42.264;24.536;2022-11-15T14:45:40;11.07;;;5.70;;
39792;SDS011;26080;42.264;24.536;2022-11-15T14:48:06;6.95;;;5.65;;
39792;SDS011;26080;42.264;24.536;2022-11-15T14:50:32;6.88;;;5.80;;
39792;SDS011;26080;42.264;24.536;2022-11-15T14:52:59;13.43;;;6.30;;
39792;SDS011;26080;42.264;24.536;2022-11-15T14:55:25;12.93;;;7.03;;
39792;SDS011;26080;42.264;24.536;2022-11-15T14:57:52;9.45;;;5.25;;
39792;SDS011;26080;42.264;24.536;2022-11-15T15:00:18;20.17;;;7.65;;
39792;SDS011;26080;42.264;24.536;2022-11-15T15:02:44;8.32;;;5.05;;
39792;SDS011;26080;42.264;24.536;2022-11-15T15:05:18;5.80;;;5.15;;
39792;SDS011;26080;42.264;24.536;2022-11-15T15:07:45;13.40;;;6.78;;
39792;SDS011;26080;42.264;24.536;2022-11-15T15:10:12;11.68;;;6.22;;
39792;SDS011;26080;42.264;24.536;2022-11-15T15:12:38;12.10;;;7.03;;
39792;SDS011;26080;42.264;24.536;2022-11-15T15:15:04;14.77;;;7.80;;
39792;SDS011;26080;42.264;24.536;2022-11-15T15:17:30;32.92;;;6.28;;
39792;SDS011;26080;42.264;24.536;2022-11-15T15:19:56;10.93;;;6.22;;
39792;SDS011;26080;42.264;24.536;2022-11-15T15:22:21;12.52;;;6.88;;
39792;SDS011;26080;42.264;24.536;2022-11-15T15:24:47;9.07;;;6.70;;
39792;SDS011;26080;42.264;24.536;2022-11-15T15:27:13;15.85;;;9.10;;
39792;SDS011;26080;42.264;24.536;2022-11-15T15:29:39;18.42;;;8.63;;
39792;SDS011;26080;42.264;24.536;2022-11-15T15:32:05;17.13;;;11.35;;
39792;SDS011;26080;42.264;24.536;2022-11-15T15:34:31;15.40;;;9.15;;
39792;SDS011;26080;42.264;24.536;2022-11-15T15:37:30;13.57;;;7.28;;
39792;SDS011;26080;42.264;24.536;2022-11-15T15:39:50;13.60;;;7.97;;
39792;SDS011;26080;42.264;24.536;2022-11-15T15:42:17;12.77;;;8.00;;
39792;SDS011;26080;42.264;24.536;2022-11-15T15:44:43;18.58;;;9.43;;
39792;SDS011;26080;42.264;24.536;2022-11-15T15:47:10;19.38;;;10.55;;
39792;SDS011;26080;42.264;24.536;2022-11-15T15:49:40;17.25;;;11.73;;
39792;SDS011;26080;42.264;24.536;2022-11-15T15:52:05;22.08;;;11.73;;
39792;SDS011;26080;42.264;24.536;2022-11-15T15:54:31;20.33;;;11.48;;
39792;SDS011;26080;42.264;24.536;2022-11-15T15:56:56;22.60;;;11.20;;
39792;SDS011;26080;42.264;24.536;2022-11-15T15:59:22;15.95;;;11.43;;
39792;SDS011;26080;42.264;24.536;2022-11-15T16:01:50;12.55;;;8.85;;
39792;SDS011;26080;42.264;24.536;2022-11-15T16:04:16;28.35;;;13.50;;
39792;SDS011;26080;42.264;24.536;2022-11-15T16:06:41;27.02;;;13.27;;
39792;SDS011;26080;42.264;24.536;2022-11-15T16:09:19;26.83;;;15.27;;
39792;SDS011;26080;42.264;24.536;2022-11-15T16:12:07;27.73;;;14.25;;
39792;SDS011;26080;42.264;24.536;2022-11-15T16:14:33;33.88;;;18.50;;
39792;SDS011;26080;42.264;24.536;2022-11-15T16:16:58;32.78;;;18.25;;
39792;SDS011;26080;42.264;24.536;2022-11-15T16:19:23;45.67;;;25.08;;
39792;SDS011;26080;42.264;24.536;2022-11-15T16:21:49;28.65;;;14.07;;
39792;SDS011;26080;42.264;24.536;2022-11-15T16:24:17;33.92;;;17.02;;
39792;SDS011;26080;42.264;24.536;2022-11-15T16:26:42;30.90;;;18.55;;
39792;SDS011;26080;42.264;24.536;2022-11-15T16:29:08;24.42;;;12.88;;
39792;SDS011;26080;42.264;24.536;2022-11-15T16:31:35;29.65;;;15.13;;
39792;SDS011;26080;42.264;24.536;2022-11-15T16:34:00;39.75;;;21.02;;
39792;SDS011;26080;42.264;24.536;2022-11-15T16:36:26;48.70;;;21.77;;
39792;SDS011;26080;42.264;24.536;2022-11-15T16:38:52;42.72;;;27.75;;
39792;SDS011;26080;42.264;24.536;2022-11-15T16:41:18;30.98;;;16.58;;
39792;SDS011;26080;42.264;24.536;2022-11-15T16:43:47;51.22;;;20.48;;
39792;SDS011;26080;42.264;24.536;2022-11-15T16:46:20;24.80;;;15.00;;